createdAt,value
2023-01-20T00:01:50.240Z,-17.43
2023-01-20T00:04:54.379Z,-17.14
2023-01-20T00:07:59.048Z,-17.23
2023-01-20T00:11:11.949Z,-17.15
2023-01-20T00:14:16.594Z,-17.10
2023-01-20T00:17:21.446Z,-17.37
2023-01-20T00:20:25.684Z,-17.26
2023-01-20T00:23:29.443Z,-16.88
2023-01-20T00:26:33.805Z,-16.93
2023-01-20T00:29:37.636Z,-16.85
2023-01-20T00:32:46.328Z,-17.08
2023-01-20T00:35:50.352Z,-17.11
2023-01-20T00:38:55.105Z,-16.93
2023-01-20T00:41:58.834Z,-17.63
2023-01-20T00:45:03.404Z,-17.78
2023-01-20T00:48:07.555Z,-17.07
2023-01-20T00:51:11.980Z,-16.81
2023-01-20T00:54:15.706Z,-17.42
2023-01-20T00:57:20.030Z,-17.03
2023-01-20T01:00:24.082Z,-16.73
2023-01-20T01:03:28.927Z,-16.37
2023-01-20T01:06:32.962Z,-16.44
2023-01-20T01:09:37.631Z,-15.72
2023-01-20T01:12:41.383Z,-15.65
2023-01-20T01:15:51.870Z,-15.52
2023-01-20T01:18:56.538Z,-15.73
2023-01-20T01:22:00.705Z,-15.34
2023-01-20T01:25:04.501Z,-15.00
2023-01-20T01:28:09.260Z,-14.34
2023-01-20T01:31:13.039Z,-14.82
2023-01-20T01:34:17.479Z,-15.33
2023-01-20T01:37:21.216Z,-15.20
2023-01-20T01:40:25.441Z,-14.46
2023-01-20T01:43:33.673Z,-15.02
2023-01-20T01:46:38.464Z,-14.94
2023-01-20T01:49:42.184Z,-13.98
2023-01-20T01:52:49.620Z,-13.50
2023-01-20T01:56:00.151Z,-13.82
2023-01-20T01:59:05.190Z,-13.49
2023-01-20T02:02:12.263Z,-14.89
2023-01-20T02:05:21.994Z,-15.01
2023-01-20T02:08:44.394Z,-14.43
2023-01-20T02:12:03.832Z,-14.61
2023-01-20T02:15:08.358Z,-14.31
2023-01-20T02:18:21.688Z,-14.87
2023-01-20T02:22:06.549Z,-14.55
2023-01-20T02:25:30.854Z,-14.41
2023-01-20T02:29:05.876Z,-13.79
2023-01-20T02:32:29.571Z,-13.14
2023-01-20T02:35:54.586Z,-13.46
2023-01-20T02:39:07.053Z,-13.18
2023-01-20T02:42:10.693Z,-14.38
2023-01-20T02:45:39.031Z,-14.00
2023-01-20T02:48:52.739Z,-14.29
2023-01-20T02:52:06.338Z,-14.74
2023-01-20T02:55:14.843Z,-13.94
2023-01-20T02:58:57.765Z,-14.65
2023-01-20T03:02:07.382Z,-15.04
2023-01-20T03:05:21.999Z,-14.89
2023-01-20T03:08:30.971Z,-14.46
2023-01-20T03:11:40.157Z,-14.58
2023-01-20T03:14:44.109Z,-14.34
2023-01-20T03:17:48.697Z,-14.17
2023-01-20T03:20:52.921Z,-13.67
2023-01-20T03:24:03.327Z,-14.31
2023-01-20T03:27:07.803Z,-13.98
2023-01-20T03:30:17.528Z,-13.75
2023-01-20T03:33:21.349Z,-14.84
2023-01-20T03:36:29.478Z,-14.58
2023-01-20T03:39:34.700Z,-15.07
2023-01-20T03:43:02.992Z,-15.26
2023-01-20T03:46:25.181Z,-15.04
2023-01-20T03:49:52.813Z,-14.67
2023-01-20T03:53:08.030Z,-14.16
2023-01-20T03:56:37.895Z,-14.49
2023-01-20T03:59:45.099Z,-14.65
2023-01-20T04:02:50.902Z,-15.15
2023-01-20T04:05:56.673Z,-15.73
2023-01-20T04:09:11.224Z,-15.74
2023-01-20T04:12:15.404Z,-15.59
2023-01-20T04:15:21.348Z,-15.19
2023-01-20T04:18:25.593Z,-15.06
2023-01-20T04:21:42.149Z,-15.27
2023-01-20T04:24:51.645Z,-14.52
2023-01-20T04:27:55.960Z,-15.24
2023-01-20T04:30:59.849Z,-14.94
2023-01-20T04:34:05.279Z,-15.20
2023-01-20T04:37:09.025Z,-15.78
2023-01-20T04:40:13.795Z,-15.65
2023-01-20T04:43:19.141Z,-15.67
2023-01-20T04:46:23.490Z,-16.58
2023-01-20T04:49:27.312Z,-16.20
2023-01-20T04:52:31.762Z,-16.30
2023-01-20T04:55:35.550Z,-16.18
2023-01-20T04:58:40.365Z,-16.12
2023-01-20T05:01:44.202Z,-16.43
2023-01-20T05:04:48.612Z,-16.52
2023-01-20T05:07:56.148Z,-17.40
2023-01-20T05:11:01.296Z,-16.53
2023-01-20T05:14:05.300Z,-16.69
2023-01-20T05:17:09.773Z,-17.05
2023-01-20T05:20:15.352Z,-17.17
2023-01-20T05:23:20.168Z,-16.53
2023-01-20T05:26:24.967Z,-17.01
2023-01-20T05:29:30.117Z,-17.46
2023-01-20T05:32:34.019Z,-17.66
2023-01-20T05:35:41.664Z,-17.92
2023-01-20T05:38:48.518Z,-17.32
2023-01-20T05:41:52.725Z,-17.46
2023-01-20T05:44:56.475Z,-18.15
2023-01-20T05:48:02.114Z,-17.39
2023-01-20T05:51:05.628Z,-17.33
2023-01-20T05:54:11.454Z,-17.20
2023-01-20T05:57:18.921Z,-17.87
2023-01-20T06:00:23.840Z,-17.47
2023-01-20T06:03:27.583Z,-16.99
2023-01-20T06:06:31.893Z,-17.27
2023-01-20T06:09:35.743Z,-18.19
2023-01-20T06:12:40.544Z,-17.56
2023-01-20T06:15:44.486Z,-17.91
2023-01-20T06:18:48.894Z,-17.80
2023-01-20T06:21:54.204Z,-18.44
2023-01-20T06:24:58.898Z,-18.49
2023-01-20T06:28:02.740Z,-17.95
2023-01-20T06:31:10.412Z,-17.95
2023-01-20T06:34:14.919Z,-18.11
2023-01-20T06:37:19.421Z,-18.64
2023-01-20T06:40:23.392Z,-18.41
2023-01-20T06:43:31.713Z,-19.07
2023-01-20T06:46:35.827Z,-19.15
2023-01-20T06:49:40.229Z,-19.21
2023-01-20T06:52:44.079Z,-18.94
2023-01-20T06:55:57.614Z,-19.70
2023-01-20T06:59:01.446Z,-19.86
2023-01-20T07:02:06.028Z,-19.32
2023-01-20T07:05:11.371Z,-19.04
2023-01-20T07:08:15.830Z,-19.45
2023-01-20T07:11:19.995Z,-19.19
2023-01-20T07:14:24.330Z,-19.47
2023-01-20T07:17:28.347Z,-19.68
2023-01-20T07:20:32.560Z,-19.72
2023-01-20T07:23:36.292Z,-19.92
2023-01-20T07:26:40.911Z,-19.46
2023-01-20T07:29:45.371Z,-19.35
2023-01-20T07:32:52.444Z,-19.95
2023-01-20T07:35:56.391Z,-20.53
2023-01-20T07:39:00.821Z,-20.79
2023-01-20T07:42:04.720Z,-20.61
2023-01-20T07:45:09.434Z,-20.31
2023-01-20T07:48:13.226Z,-20.15
2023-01-20T07:51:18.239Z,-20.45
2023-01-20T07:54:22.030Z,-20.19
2023-01-20T07:57:26.523Z,-20.26
2023-01-20T08:00:30.194Z,-20.14
2023-01-20T08:03:34.492Z,-20.36
2023-01-20T08:06:38.395Z,-20.34
2023-01-20T08:09:44.838Z,-20.45
2023-01-20T08:12:48.582Z,-20.77
2023-01-20T08:15:53.804Z,-20.91
2023-01-20T08:18:57.556Z,-21.03
2023-01-20T08:22:02.047Z,-20.90
2023-01-20T08:25:06.086Z,-21.17
2023-01-20T08:28:10.878Z,-21.26
2023-01-20T08:31:18.065Z,-21.57
2023-01-20T08:34:24.058Z,-21.63
2023-01-20T08:37:27.940Z,-21.37
2023-01-20T08:40:34.074Z,-21.12
2023-01-20T08:43:38.356Z,-21.23
2023-01-20T08:46:43.251Z,-21.10
2023-01-20T08:49:47.043Z,-21.27
2023-01-20T08:52:51.555Z,-21.53
2023-01-20T08:55:59.898Z,-21.71
2023-01-20T08:59:05.029Z,-21.78
2023-01-20T09:02:12.818Z,-21.71
2023-01-20T09:05:17.271Z,-21.42
2023-01-20T09:08:21.737Z,-21.53
2023-01-20T09:11:29.118Z,-21.58
2023-01-20T09:14:33.167Z,-21.97
2023-01-20T09:17:37.854Z,-21.80
2023-01-20T09:20:41.780Z,-21.91
2023-01-20T09:23:49.164Z,-22.07
2023-01-20T09:26:53.606Z,-22.25
2023-01-20T09:29:58.182Z,-22.28
2023-01-20T09:33:03.063Z,-22.88
2023-01-20T09:36:10.582Z,-22.59
2023-01-20T09:39:33.440Z,-22.65
2023-01-20T09:43:29.221Z,-22.30
2023-01-20T09:47:10.773Z,-22.51
2023-01-20T09:50:42.304Z,-22.52
2023-01-20T09:54:00.043Z,-22.62
2023-01-20T09:57:07.993Z,-22.78
2023-01-20T10:00:22.526Z,-22.88
2023-01-20T10:03:49.647Z,-22.83
2023-01-20T10:07:08.723Z,-22.99
2023-01-20T10:10:32.705Z,-22.98
2023-01-20T10:13:47.964Z,-23.18
2023-01-20T10:17:08.518Z,-23.13
2023-01-20T10:20:21.031Z,-23.91
2023-01-20T10:23:34.887Z,-24.04
2023-01-20T10:26:58.421Z,-24.47
2023-01-20T10:30:14.674Z,-24.72
2023-01-20T10:33:42.480Z,-24.68
2023-01-20T10:36:52.074Z,-24.71
2023-01-20T10:40:04.700Z,-25.22
2023-01-20T10:43:16.692Z,-24.90
2023-01-20T10:46:34.139Z,-24.85
2023-01-20T10:49:47.078Z,-24.85
2023-01-20T10:52:51.883Z,-24.62
2023-01-20T10:56:30.747Z,-24.74
2023-01-20T10:59:44.188Z,-24.96
2023-01-20T11:02:50.232Z,-24.69
2023-01-20T11:05:54.961Z,-25.07
2023-01-20T11:09:12.960Z,-24.88
2023-01-20T11:12:24.898Z,-25.03
2023-01-20T11:15:39.373Z,-24.94
2023-01-20T11:18:44.786Z,-25.18
2023-01-20T11:21:50.776Z,-24.83
2023-01-20T11:24:57.431Z,-24.99
2023-01-20T11:28:03.764Z,-24.67
2023-01-20T11:31:07.986Z,-24.42
2023-01-20T11:34:28.957Z,-23.82
2023-01-20T11:37:39.588Z,-23.55
2023-01-20T11:40:55.935Z,-24.04
2023-01-20T11:44:01.726Z,-23.62
2023-01-20T11:47:33.146Z,-23.88
2023-01-20T11:50:55.029Z,-24.00
2023-01-20T11:54:10.105Z,-23.93
2023-01-20T11:57:18.578Z,-24.48
2023-01-20T12:00:32.961Z,-24.36
2023-01-20T12:04:21.021Z,-24.70
2023-01-20T12:07:40.564Z,-24.69
2023-01-20T12:10:47.202Z,-24.59
2023-01-20T12:14:24.183Z,-24.96
2023-01-20T12:17:43.409Z,-25.14
2023-01-20T12:21:00.350Z,-25.13
2023-01-20T12:24:52.450Z,-25.54
2023-01-20T12:28:10.552Z,-25.74
2023-01-20T12:31:20.773Z,-25.66
2023-01-20T12:34:30.659Z,-25.25
2023-01-20T12:37:58.468Z,-25.35
2023-01-20T12:41:08.991Z,-25.30
2023-01-20T12:44:36.159Z,-25.55
2023-01-20T12:48:18.063Z,-25.82
2023-01-20T12:51:30.230Z,-26.02
2023-01-20T12:54:52.537Z,-25.95
2023-01-20T12:58:13.640Z,-25.86
2023-01-20T13:01:29.546Z,-26.19
2023-01-20T13:04:55.436Z,-26.11
2023-01-20T13:08:14.172Z,-26.08
2023-01-20T13:12:00.312Z,-26.06
2023-01-20T13:15:20.155Z,-25.79
2023-01-20T13:18:58.265Z,-26.33
2023-01-20T13:22:36.703Z,-25.86
2023-01-20T13:25:42.208Z,-25.79
2023-01-20T13:28:57.480Z,-26.00
2023-01-20T13:32:01.787Z,-26.41
2023-01-20T13:35:27.078Z,-26.74
2023-01-20T13:38:33.917Z,-26.43
2023-01-20T13:41:54.011Z,-26.19
2023-01-20T13:45:13.729Z,-26.61
2023-01-20T13:48:26.840Z,-26.68
2023-01-20T13:51:39.819Z,-26.94
2023-01-20T13:54:48.761Z,-26.78
2023-01-20T13:57:52.832Z,-26.92
2023-01-20T14:01:09.809Z,-26.86
2023-01-20T14:04:19.737Z,-27.20
2023-01-20T14:07:29.084Z,-27.08
2023-01-20T14:10:33.432Z,-26.61
2023-01-20T14:13:37.500Z,-26.76
2023-01-20T14:16:44.299Z,-26.60
2023-01-20T14:19:54.093Z,-26.60
2023-01-20T14:23:24.858Z,-26.93
2023-01-20T14:26:31.644Z,-26.81
2023-01-20T14:29:36.206Z,-26.92
2023-01-20T14:32:40.393Z,-26.79
2023-01-20T14:35:45.495Z,-27.13
2023-01-20T14:38:58.873Z,-27.19
2023-01-20T14:42:03.284Z,-28.00
2023-01-20T14:45:24.413Z,-27.26
2023-01-20T14:48:34.823Z,-27.20
2023-01-20T14:51:39.254Z,-27.16
2023-01-20T14:54:46.490Z,-27.04
2023-01-20T14:57:51.523Z,-27.33
2023-01-20T15:01:00.999Z,-27.65
2023-01-20T15:04:06.846Z,-27.55
2023-01-20T15:07:20.501Z,-27.63
2023-01-20T15:10:24.500Z,-28.12
2023-01-20T15:13:31.836Z,-28.13
2023-01-20T15:16:45.615Z,-28.46
2023-01-20T15:19:49.897Z,-28.16
2023-01-20T15:22:54.348Z,-28.40
2023-01-20T15:26:09.237Z,-28.29
2023-01-20T15:29:33.737Z,-27.84
2023-01-20T15:32:37.686Z,-27.79
2023-01-20T15:35:42.918Z,-27.83
2023-01-20T15:38:47.214Z,-27.65
2023-01-20T15:41:58.489Z,-28.32
2023-01-20T15:45:02.261Z,-27.98
2023-01-20T15:48:17.618Z,-28.58
2023-01-20T15:51:21.631Z,-28.67
2023-01-20T15:54:25.874Z,-28.69
2023-01-20T15:57:31.627Z,-28.42
2023-01-20T16:00:35.841Z,-28.42
2023-01-20T16:03:39.610Z,-28.76
2023-01-20T16:06:44.140Z,-29.41
2023-01-20T16:09:48.335Z,-28.94
2023-01-20T16:12:53.202Z,-29.11
2023-01-20T16:15:57.979Z,-29.83
2023-01-20T16:19:02.607Z,-29.71
2023-01-20T16:22:07.736Z,-30.02
2023-01-20T16:25:12.156Z,-31.25
2023-01-20T16:28:20.508Z,-30.11
2023-01-20T16:31:26.984Z,-29.61
2023-01-20T16:34:31.093Z,-29.95
2023-01-20T16:37:35.463Z,-29.56
2023-01-20T16:40:50.383Z,-29.33
2023-01-20T16:43:56.950Z,-29.52
2023-01-20T16:47:00.990Z,-29.92
2023-01-20T16:50:05.621Z,-30.18
2023-01-20T16:53:08.989Z,-30.34
2023-01-20T16:56:24.602Z,-30.33
2023-01-20T16:59:28.412Z,-29.83
2023-01-20T17:02:32.612Z,-30.55
2023-01-20T17:05:36.555Z,-30.88
2023-01-20T17:08:40.485Z,-30.49
2023-01-20T17:11:43.949Z,-30.04
2023-01-20T17:14:48.531Z,-30.13
2023-01-20T17:17:52.851Z,-30.17
2023-01-20T17:20:57.150Z,-30.40
2023-01-20T17:24:01.938Z,-30.50
2023-01-20T17:27:06.461Z,-30.13
2023-01-20T17:30:10.285Z,-29.79
2023-01-20T17:33:15.007Z,-30.62
2023-01-20T17:36:19.170Z,-30.36
2023-01-20T17:39:23.156Z,-30.57
2023-01-20T17:42:26.557Z,-30.85
2023-01-20T17:45:33.231Z,-30.57
2023-01-20T17:48:36.635Z,-30.71
2023-01-20T17:51:40.607Z,-30.68
2023-01-20T17:54:44.055Z,-30.82
2023-01-20T17:57:48.100Z,-30.21
2023-01-20T18:00:51.525Z,-30.13
2023-01-20T18:03:56.582Z,-30.22
2023-01-20T18:07:00.415Z,-30.43
2023-01-20T18:10:04.654Z,-30.36
2023-01-20T18:13:08.049Z,-30.06
2023-01-20T18:16:13.413Z,-29.81
2023-01-20T18:19:16.936Z,-30.25
2023-01-20T18:22:20.964Z,-30.40
2023-01-20T18:25:24.464Z,-30.38
2023-01-20T18:28:28.844Z,-30.34
2023-01-20T18:31:35.542Z,-30.61
2023-01-20T18:34:40.063Z,-30.79
2023-01-20T18:37:43.832Z,-30.93
2023-01-20T18:40:47.861Z,-31.40
2023-01-20T18:43:52.045Z,-31.68
2023-01-20T18:46:56.313Z,-31.69
2023-01-20T18:49:59.712Z,-32.32
2023-01-20T18:53:03.595Z,-31.99
2023-01-20T18:56:09.313Z,-31.96
2023-01-20T18:59:13.457Z,-31.95
2023-01-20T19:02:16.939Z,-31.88
2023-01-20T19:05:20.870Z,-32.04
2023-01-20T19:08:25.522Z,-31.76
2023-01-20T19:11:32.284Z,-31.54
2023-01-20T19:14:35.700Z,-32.09
2023-01-20T19:17:39.876Z,-32.35
2023-01-20T19:20:43.206Z,-32.07
2023-01-20T19:23:50.992Z,-32.05
2023-01-20T19:26:54.757Z,-32.24
2023-01-20T19:29:58.928Z,-32.26
2023-01-20T19:33:02.706Z,-31.77
2023-01-20T19:36:08.576Z,-32.11
2023-01-20T19:39:12.452Z,-32.11
2023-01-20T19:42:16.576Z,-31.89
2023-01-20T19:45:19.967Z,-31.74
2023-01-20T19:48:24.249Z,-31.99
2023-01-20T19:51:28.012Z,-32.16
2023-01-20T19:54:34.245Z,-32.16
2023-01-20T19:57:38.095Z,-32.38
2023-01-20T20:00:42.190Z,-32.35
2023-01-20T20:03:45.920Z,-32.75
2023-01-20T20:06:50.013Z,-32.56
2023-01-20T20:09:53.708Z,-32.68
2023-01-20T20:12:58.572Z,-32.39
2023-01-20T20:16:02.592Z,-32.60
2023-01-20T20:19:07.522Z,-32.72
2023-01-20T20:22:10.894Z,-32.97
2023-01-20T20:25:14.840Z,-33.03
2023-01-20T20:28:18.485Z,-33.03
2023-01-20T20:31:23.448Z,-33.31
2023-01-20T20:34:26.890Z,-33.59
2023-01-20T20:37:31.660Z,-33.30
2023-01-20T20:40:35.909Z,-33.00
2023-01-20T20:43:39.817Z,-32.94
2023-01-20T20:46:44.253Z,-33.20
2023-01-20T20:49:48.876Z,-33.60
2023-01-20T20:52:52.367Z,-33.65
2023-01-20T20:55:59.952Z,-34.04
2023-01-20T20:59:03.955Z,-33.71
2023-01-20T21:02:08.098Z,-33.80
2023-01-20T21:05:11.529Z,-33.81
2023-01-20T21:08:15.827Z,-33.52
2023-01-20T21:11:20.901Z,-33.27
2023-01-20T21:14:26.297Z,-33.28
2023-01-20T21:17:30.082Z,-33.47
2023-01-20T21:20:34.510Z,-33.22
2023-01-20T21:23:38.027Z,-33.22
2023-01-20T21:26:42.471Z,-33.26
2023-01-20T21:29:47.178Z,-33.47
2023-01-20T21:32:51.255Z,-33.29
2023-01-20T21:35:54.632Z,-33.25
2023-01-20T21:39:00.374Z,-33.29
2023-01-20T21:42:06.673Z,-33.15
2023-01-20T21:45:10.995Z,-33.22
2023-01-20T21:48:33.094Z,-33.10
2023-01-20T21:51:55.609Z,-33.26
2023-01-20T21:54:59.102Z,-33.60
2023-01-20T21:58:03.286Z,-33.74
2023-01-20T22:01:06.859Z,-33.70
2023-01-20T22:04:11.045Z,-33.37
2023-01-20T22:07:15.964Z,-32.72
2023-01-20T22:10:19.999Z,-32.52
2023-01-20T22:13:23.397Z,-32.75
2023-01-20T22:16:27.511Z,-33.22
2023-01-20T22:19:30.965Z,-33.47
2023-01-20T22:22:34.868Z,-34.18
2023-01-20T22:25:38.807Z,-34.35
2023-01-20T22:28:43.603Z,-34.16
2023-01-20T22:39:21.347Z,-34.62
2023-01-20T22:42:25.398Z,-34.72
2023-01-20T22:45:29.231Z,-34.38
2023-01-20T22:48:34.129Z,-34.68
2023-01-20T22:51:37.787Z,-34.28
2023-01-20T22:54:41.718Z,-33.76
2023-01-20T22:57:45.681Z,-33.46
2023-01-20T23:00:49.521Z,-33.07
2023-01-20T23:03:57.319Z,-33.30
2023-01-20T23:07:01.319Z,-33.58
2023-01-20T23:10:05.557Z,-33.61
2023-01-20T23:13:09.255Z,-34.01
2023-01-20T23:16:15.502Z,-33.39
2023-01-20T23:19:19.340Z,-33.03
2023-01-20T23:22:23.366Z,-32.84
2023-01-20T23:25:27.221Z,-32.51
2023-01-20T23:28:31.118Z,-33.14
2023-01-20T23:31:35.944Z,-32.62
2023-01-20T23:38:11.322Z,-31.61
2023-01-20T23:41:17.025Z,-31.69
2023-01-20T23:44:21.278Z,-31.01
2023-01-20T23:47:24.585Z,-29.90
2023-01-20T23:50:28.214Z,-29.97
2023-01-20T23:53:33.191Z,-29.60
2023-01-20T23:56:37.155Z,-28.03
2023-01-20T23:59:40.829Z,-26.72
